sensor_id;sensor_type;location;lat;lon;timestamp;P1;durP1;ratioP1;P2;durP2;ratioP2
3589;SDS011;1809;48.470;9.226;2023-04-15T00:01:25;6.03;;;2.90;;
3589;SDS011;1809;48.470;9.226;2023-04-15T00:03:56;4.07;;;2.93;;
3589;SDS011;1809;48.470;9.226;2023-04-15T00:06:22;4.43;;;2.60;;
3589;SDS011;1809;48.470;9.226;2023-04-15T00:08:51;4.17;;;2.70;;
3589;SDS011;1809;48.470;9.226;2023-04-15T00:11:17;3.00;;;2.10;;
3589;SDS011;1809;48.470;9.226;2023-04-15T00:13:44;5.40;;;2.97;;
3589;SDS011;1809;48.470;9.226;2023-04-15T00:16:10;4.30;;;2.53;;
3589;SDS011;1809;48.470;9.226;2023-04-15T00:18:36;2.70;;;2.50;;
3589;SDS011;1809;48.470;9.226;2023-04-15T00:21:03;6.23;;;2.20;;
3589;SDS011;1809;48.470;9.226;2023-04-15T00:23:29;3.93;;;2.43;;
3589;SDS011;1809;48.470;9.226;2023-04-15T00:26:00;2.90;;;2.33;;
3589;SDS011;1809;48.470;9.226;2023-04-15T00:28:25;2.90;;;2.17;;
3589;SDS011;1809;48.470;9.226;2023-04-15T00:30:52;4.17;;;2.63;;
3589;SDS011;1809;48.470;9.226;2023-04-15T00:33:17;3.43;;;1.97;;
3589;SDS011;1809;48.470;9.226;2023-04-15T00:35:46;5.40;;;3.03;;
3589;SDS011;1809;48.470;9.226;2023-04-15T00:38:12;5.53;;;2.50;;
3589;SDS011;1809;48.470;9.226;2023-04-15T00:40:38;5.47;;;2.40;;
3589;SDS011;1809;48.470;9.226;2023-04-15T00:43:07;4.20;;;2.60;;
3589;SDS011;1809;48.470;9.226;2023-04-15T00:45:33;4.83;;;3.40;;
3589;SDS011;1809;48.470;9.226;2023-04-15T00:47:59;3.43;;;1.80;;
3589;SDS011;1809;48.470;9.226;2023-04-15T00:50:25;3.40;;;2.57;;
3589;SDS011;1809;48.470;9.226;2023-04-15T00:52:50;5.40;;;2.83;;
3589;SDS011;1809;48.470;9.226;2023-04-15T00:55:16;5.27;;;3.20;;
3589;SDS011;1809;48.470;9.226;2023-04-15T00:57:43;3.80;;;2.23;;
3589;SDS011;1809;48.470;9.226;2023-04-15T01:00:09;7.90;;;2.50;;
3589;SDS011;1809;48.470;9.226;2023-04-15T01:02:36;8.67;;;2.60;;
3589;SDS011;1809;48.470;9.226;2023-04-15T01:05:03;3.83;;;3.27;;
3589;SDS011;1809;48.470;9.226;2023-04-15T01:07:32;5.40;;;3.20;;
3589;SDS011;1809;48.470;9.226;2023-04-15T01:09:58;5.37;;;2.93;;
3589;SDS011;1809;48.470;9.226;2023-04-15T01:12:25;6.77;;;3.60;;
3589;SDS011;1809;48.470;9.226;2023-04-15T01:14:54;5.43;;;3.10;;
3589;SDS011;1809;48.470;9.226;2023-04-15T01:17:21;4.57;;;3.07;;
3589;SDS011;1809;48.470;9.226;2023-04-15T01:19:48;1.90;;;1.80;;
3589;SDS011;1809;48.470;9.226;2023-04-15T01:22:17;10.90;;;2.80;;
3589;SDS011;1809;48.470;9.226;2023-04-15T01:24:48;2.43;;;2.30;;
3589;SDS011;1809;48.470;9.226;2023-04-15T01:27:19;3.60;;;2.50;;
3589;SDS011;1809;48.470;9.226;2023-04-15T01:29:46;4.80;;;3.47;;
3589;SDS011;1809;48.470;9.226;2023-04-15T01:32:12;4.23;;;2.20;;
3589;SDS011;1809;48.470;9.226;2023-04-15T01:34:38;3.80;;;2.60;;
3589;SDS011;1809;48.470;9.226;2023-04-15T01:37:03;3.50;;;3.20;;
3589;SDS011;1809;48.470;9.226;2023-04-15T01:39:32;3.37;;;2.97;;
3589;SDS011;1809;48.470;9.226;2023-04-15T01:41:58;6.13;;;2.80;;
3589;SDS011;1809;48.470;9.226;2023-04-15T01:44:28;4.40;;;3.00;;
3589;SDS011;1809;48.470;9.226;2023-04-15T01:46:53;3.83;;;2.13;;
3589;SDS011;1809;48.470;9.226;2023-04-15T01:51:51;5.57;;;2.93;;
3589;SDS011;1809;48.470;9.226;2023-04-15T01:54:16;3.97;;;2.33;;
3589;SDS011;1809;48.470;9.226;2023-04-15T01:56:41;5.13;;;3.20;;
3589;SDS011;1809;48.470;9.226;2023-04-15T01:59:06;5.03;;;2.20;;
3589;SDS011;1809;48.470;9.226;2023-04-15T02:01:32;4.93;;;2.30;;
3589;SDS011;1809;48.470;9.226;2023-04-15T02:03:58;2.13;;;2.03;;
3589;SDS011;1809;48.470;9.226;2023-04-15T02:06:23;8.80;;;3.13;;
3589;SDS011;1809;48.470;9.226;2023-04-15T02:08:48;3.73;;;2.50;;
3589;SDS011;1809;48.470;9.226;2023-04-15T02:11:13;9.70;;;3.53;;
3589;SDS011;1809;48.470;9.226;2023-04-15T02:13:39;5.87;;;2.70;;
3589;SDS011;1809;48.470;9.226;2023-04-15T02:16:14;5.10;;;2.97;;
3589;SDS011;1809;48.470;9.226;2023-04-15T02:18:43;6.87;;;3.10;;
3589;SDS011;1809;48.470;9.226;2023-04-15T02:21:10;9.33;;;3.90;;
3589;SDS011;1809;48.470;9.226;2023-04-15T02:23:36;8.67;;;4.10;;
3589;SDS011;1809;48.470;9.226;2023-04-15T02:26:01;7.17;;;3.17;;
3589;SDS011;1809;48.470;9.226;2023-04-15T02:28:26;25.53;;;3.20;;
3589;SDS011;1809;48.470;9.226;2023-04-15T02:30:52;3.33;;;2.97;;
3589;SDS011;1809;48.470;9.226;2023-04-15T02:33:18;2.63;;;2.03;;
3589;SDS011;1809;48.470;9.226;2023-04-15T02:35:45;3.10;;;2.30;;
3589;SDS011;1809;48.470;9.226;2023-04-15T02:38:10;3.73;;;2.40;;
3589;SDS011;1809;48.470;9.226;2023-04-15T02:40:36;4.93;;;2.47;;
3589;SDS011;1809;48.470;9.226;2023-04-15T02:43:01;9.03;;;2.47;;
3589;SDS011;1809;48.470;9.226;2023-04-15T02:45:27;4.10;;;2.90;;
3589;SDS011;1809;48.470;9.226;2023-04-15T02:47:52;6.10;;;2.20;;
3589;SDS011;1809;48.470;9.226;2023-04-15T02:50:18;3.57;;;2.70;;
3589;SDS011;1809;48.470;9.226;2023-04-15T02:52:44;4.43;;;2.93;;
3589;SDS011;1809;48.470;9.226;2023-04-15T02:55:09;5.33;;;2.73;;
3589;SDS011;1809;48.470;9.226;2023-04-15T02:57:35;5.70;;;2.87;;
3589;SDS011;1809;48.470;9.226;2023-04-15T03:00:03;2.87;;;2.50;;
3589;SDS011;1809;48.470;9.226;2023-04-15T03:02:32;2.60;;;2.20;;
3589;SDS011;1809;48.470;9.226;2023-04-15T03:05:01;3.20;;;2.90;;
3589;SDS011;1809;48.470;9.226;2023-04-15T03:07:27;4.27;;;2.80;;
3589;SDS011;1809;48.470;9.226;2023-04-15T03:09:52;5.67;;;3.03;;
3589;SDS011;1809;48.470;9.226;2023-04-15T03:12:18;4.93;;;2.90;;
3589;SDS011;1809;48.470;9.226;2023-04-15T03:14:43;5.87;;;3.50;;
3589;SDS011;1809;48.470;9.226;2023-04-15T03:17:08;13.97;;;3.70;;
3589;SDS011;1809;48.470;9.226;2023-04-15T03:19:33;5.17;;;3.00;;
3589;SDS011;1809;48.470;9.226;2023-04-15T03:21:59;2.63;;;2.43;;
3589;SDS011;1809;48.470;9.226;2023-04-15T03:24:24;10.53;;;2.80;;
3589;SDS011;1809;48.470;9.226;2023-04-15T03:26:50;4.90;;;3.10;;
3589;SDS011;1809;48.470;9.226;2023-04-15T03:29:15;4.33;;;2.57;;
3589;SDS011;1809;48.470;9.226;2023-04-15T03:31:40;3.27;;;2.90;;
3589;SDS011;1809;48.470;9.226;2023-04-15T03:34:06;6.93;;;2.60;;
3589;SDS011;1809;48.470;9.226;2023-04-15T03:36:31;3.83;;;2.50;;
3589;SDS011;1809;48.470;9.226;2023-04-15T03:38:57;3.13;;;2.20;;
3589;SDS011;1809;48.470;9.226;2023-04-15T03:41:23;6.30;;;2.80;;
3589;SDS011;1809;48.470;9.226;2023-04-15T03:43:48;9.43;;;3.10;;
3589;SDS011;1809;48.470;9.226;2023-04-15T03:46:16;4.50;;;2.77;;
3589;SDS011;1809;48.470;9.226;2023-04-15T03:48:41;6.20;;;2.97;;
3589;SDS011;1809;48.470;9.226;2023-04-15T03:51:06;4.30;;;2.60;;
3589;SDS011;1809;48.470;9.226;2023-04-15T03:53:32;6.80;;;2.80;;
3589;SDS011;1809;48.470;9.226;2023-04-15T03:55:57;2.53;;;2.33;;
3589;SDS011;1809;48.470;9.226;2023-04-15T03:58:22;5.93;;;3.10;;
3589;SDS011;1809;48.470;9.226;2023-04-15T04:00:48;8.83;;;2.33;;
3589;SDS011;1809;48.470;9.226;2023-04-15T04:03:13;3.00;;;2.80;;
3589;SDS011;1809;48.470;9.226;2023-04-15T04:05:38;8.10;;;3.07;;
3589;SDS011;1809;48.470;9.226;2023-04-15T04:08:05;3.60;;;2.77;;
3589;SDS011;1809;48.470;9.226;2023-04-15T04:10:31;5.90;;;3.50;;
3589;SDS011;1809;48.470;9.226;2023-04-15T04:12:56;3.20;;;2.97;;
3589;SDS011;1809;48.470;9.226;2023-04-15T04:15:22;6.63;;;3.60;;
3589;SDS011;1809;48.470;9.226;2023-04-15T04:17:47;3.97;;;3.70;;
3589;SDS011;1809;48.470;9.226;2023-04-15T04:20:12;7.37;;;3.70;;
3589;SDS011;1809;48.470;9.226;2023-04-15T04:22:38;7.13;;;2.93;;
3589;SDS011;1809;48.470;9.226;2023-04-15T04:25:05;5.20;;;3.70;;
3589;SDS011;1809;48.470;9.226;2023-04-15T04:27:32;9.70;;;3.00;;
3589;SDS011;1809;48.470;9.226;2023-04-15T04:29:58;6.70;;;3.50;;
3589;SDS011;1809;48.470;9.226;2023-04-15T04:32:23;3.60;;;3.30;;
3589;SDS011;1809;48.470;9.226;2023-04-15T04:34:48;4.67;;;2.80;;
3589;SDS011;1809;48.470;9.226;2023-04-15T04:37:14;3.83;;;3.33;;
3589;SDS011;1809;48.470;9.226;2023-04-15T04:39:39;9.40;;;4.17;;
3589;SDS011;1809;48.470;9.226;2023-04-15T04:42:05;6.43;;;3.70;;
3589;SDS011;1809;48.470;9.226;2023-04-15T04:44:30;5.07;;;3.07;;
3589;SDS011;1809;48.470;9.226;2023-04-15T04:46:55;4.80;;;2.97;;
3589;SDS011;1809;48.470;9.226;2023-04-15T04:49:21;4.10;;;3.10;;
3589;SDS011;1809;48.470;9.226;2023-04-15T04:51:46;3.93;;;2.70;;
3589;SDS011;1809;48.470;9.226;2023-04-15T04:54:12;8.97;;;3.20;;
3589;SDS011;1809;48.470;9.226;2023-04-15T04:56:44;6.87;;;3.97;;
3589;SDS011;1809;48.470;9.226;2023-04-15T04:59:10;5.70;;;3.47;;
3589;SDS011;1809;48.470;9.226;2023-04-15T05:01:39;12.20;;;3.87;;
3589;SDS011;1809;48.470;9.226;2023-04-15T05:04:05;9.50;;;4.37;;
3589;SDS011;1809;48.470;9.226;2023-04-15T05:06:34;9.30;;;4.40;;
3589;SDS011;1809;48.470;9.226;2023-04-15T05:09:01;6.80;;;3.47;;
3589;SDS011;1809;48.470;9.226;2023-04-15T05:11:27;7.03;;;4.00;;
3589;SDS011;1809;48.470;9.226;2023-04-15T05:13:53;3.37;;;3.07;;
3589;SDS011;1809;48.470;9.226;2023-04-15T05:16:19;12.27;;;4.03;;
3589;SDS011;1809;48.470;9.226;2023-04-15T05:18:45;3.80;;;3.50;;
3589;SDS011;1809;48.470;9.226;2023-04-15T05:21:16;5.83;;;3.70;;
3589;SDS011;1809;48.470;9.226;2023-04-15T05:23:42;8.70;;;4.63;;
3589;SDS011;1809;48.470;9.226;2023-04-15T05:26:13;3.87;;;2.77;;
3589;SDS011;1809;48.470;9.226;2023-04-15T05:28:39;6.40;;;3.97;;
3589;SDS011;1809;48.470;9.226;2023-04-15T05:31:07;4.60;;;4.10;;
3589;SDS011;1809;48.470;9.226;2023-04-15T05:33:33;12.77;;;4.30;;
3589;SDS011;1809;48.470;9.226;2023-04-15T05:35:59;6.30;;;4.47;;
3589;SDS011;1809;48.470;9.226;2023-04-15T05:38:25;4.07;;;2.83;;
3589;SDS011;1809;48.470;9.226;2023-04-15T05:40:51;5.27;;;2.73;;
3589;SDS011;1809;48.470;9.226;2023-04-15T05:43:17;4.33;;;2.83;;
3589;SDS011;1809;48.470;9.226;2023-04-15T05:45:42;8.07;;;4.00;;
3589;SDS011;1809;48.470;9.226;2023-04-15T05:48:08;6.30;;;2.97;;
3589;SDS011;1809;48.470;9.226;2023-04-15T05:50:35;3.27;;;2.60;;
3589;SDS011;1809;48.470;9.226;2023-04-15T05:53:00;3.37;;;2.73;;
3589;SDS011;1809;48.470;9.226;2023-04-15T05:55:27;7.33;;;4.20;;
3589;SDS011;1809;48.470;9.226;2023-04-15T05:57:55;3.73;;;3.00;;
3589;SDS011;1809;48.470;9.226;2023-04-15T06:00:27;9.23;;;3.57;;
3589;SDS011;1809;48.470;9.226;2023-04-15T06:02:55;3.73;;;3.13;;
3589;SDS011;1809;48.470;9.226;2023-04-15T06:05:23;6.43;;;3.37;;
3589;SDS011;1809;48.470;9.226;2023-04-15T06:07:51;6.43;;;3.33;;
3589;SDS011;1809;48.470;9.226;2023-04-15T06:10:23;5.80;;;4.00;;
3589;SDS011;1809;48.470;9.226;2023-04-15T06:12:48;6.70;;;3.77;;
3589;SDS011;1809;48.470;9.226;2023-04-15T06:15:15;3.50;;;3.20;;
3589;SDS011;1809;48.470;9.226;2023-04-15T06:17:41;5.90;;;3.70;;
3589;SDS011;1809;48.470;9.226;2023-04-15T06:20:10;5.40;;;3.30;;
3589;SDS011;1809;48.470;9.226;2023-04-15T06:22:36;7.50;;;4.00;;
3589;SDS011;1809;48.470;9.226;2023-04-15T06:25:11;8.10;;;3.63;;
3589;SDS011;1809;48.470;9.226;2023-04-15T06:27:39;3.83;;;3.47;;
3589;SDS011;1809;48.470;9.226;2023-04-15T06:30:06;6.97;;;3.80;;
3589;SDS011;1809;48.470;9.226;2023-04-15T06:32:35;23.90;;;6.43;;
3589;SDS011;1809;48.470;9.226;2023-04-15T06:35:00;10.07;;;3.17;;
3589;SDS011;1809;48.470;9.226;2023-04-15T06:37:29;5.83;;;3.60;;
3589;SDS011;1809;48.470;9.226;2023-04-15T06:40:13;6.90;;;3.50;;
3589;SDS011;1809;48.470;9.226;2023-04-15T06:42:39;4.43;;;3.63;;
3589;SDS011;1809;48.470;9.226;2023-04-15T06:45:06;5.90;;;3.70;;
3589;SDS011;1809;48.470;9.226;2023-04-15T06:47:32;3.80;;;3.50;;
3589;SDS011;1809;48.470;9.226;2023-04-15T06:50:01;5.23;;;3.47;;
3589;SDS011;1809;48.470;9.226;2023-04-15T06:52:30;5.63;;;4.40;;
3589;SDS011;1809;48.470;9.226;2023-04-15T06:54:56;5.77;;;3.50;;
3589;SDS011;1809;48.470;9.226;2023-04-15T06:57:23;4.63;;;3.60;;
3589;SDS011;1809;48.470;9.226;2023-04-15T06:59:49;5.63;;;3.97;;
3589;SDS011;1809;48.470;9.226;2023-04-15T07:02:16;5.13;;;4.57;;
3589;SDS011;1809;48.470;9.226;2023-04-15T07:04:42;7.23;;;4.30;;
3589;SDS011;1809;48.470;9.226;2023-04-15T07:07:08;6.00;;;3.80;;
3589;SDS011;1809;48.470;9.226;2023-04-15T07:09:33;12.23;;;4.70;;
3589;SDS011;1809;48.470;9.226;2023-04-15T07:11:59;7.03;;;3.53;;
3589;SDS011;1809;48.470;9.226;2023-04-15T07:14:25;8.63;;;3.80;;
3589;SDS011;1809;48.470;9.226;2023-04-15T07:16:51;6.80;;;4.20;;
3589;SDS011;1809;48.470;9.226;2023-04-15T07:19:17;11.73;;;4.70;;
3589;SDS011;1809;48.470;9.226;2023-04-15T07:21:43;5.47;;;3.90;;
3589;SDS011;1809;48.470;9.226;2023-04-15T07:24:12;9.23;;;4.30;;
3589;SDS011;1809;48.470;9.226;2023-04-15T07:26:45;5.80;;;3.93;;
3589;SDS011;1809;48.470;9.226;2023-04-15T07:29:11;6.73;;;4.17;;
3589;SDS011;1809;48.470;9.226;2023-04-15T07:31:37;5.00;;;4.60;;
3589;SDS011;1809;48.470;9.226;2023-04-15T07:34:05;10.10;;;4.80;;
3589;SDS011;1809;48.470;9.226;2023-04-15T07:36:34;5.40;;;4.30;;
3589;SDS011;1809;48.470;9.226;2023-04-15T07:39:00;8.20;;;3.93;;
3589;SDS011;1809;48.470;9.226;2023-04-15T07:41:28;13.93;;;4.97;;
3589;SDS011;1809;48.470;9.226;2023-04-15T07:43:54;12.80;;;5.20;;
3589;SDS011;1809;48.470;9.226;2023-04-15T07:46:20;8.20;;;4.47;;
3589;SDS011;1809;48.470;9.226;2023-04-15T07:48:51;11.17;;;4.70;;
3589;SDS011;1809;48.470;9.226;2023-04-15T07:51:18;6.90;;;4.50;;
3589;SDS011;1809;48.470;9.226;2023-04-15T07:53:45;11.00;;;4.90;;
3589;SDS011;1809;48.470;9.226;2023-04-15T07:56:12;5.20;;;4.40;;
3589;SDS011;1809;48.470;9.226;2023-04-15T07:58:38;5.70;;;4.83;;
3589;SDS011;1809;48.470;9.226;2023-04-15T08:01:03;8.93;;;4.90;;
3589;SDS011;1809;48.470;9.226;2023-04-15T08:03:29;6.20;;;4.33;;
3589;SDS011;1809;48.470;9.226;2023-04-15T08:05:56;6.43;;;4.73;;
3589;SDS011;1809;48.470;9.226;2023-04-15T08:08:24;6.30;;;4.97;;
3589;SDS011;1809;48.470;9.226;2023-04-15T08:10:53;8.70;;;4.67;;
3589;SDS011;1809;48.470;9.226;2023-04-15T08:13:19;7.23;;;3.50;;
3589;SDS011;1809;48.470;9.226;2023-04-15T08:15:45;7.83;;;3.87;;
3589;SDS011;1809;48.470;9.226;2023-04-15T08:18:10;6.47;;;4.10;;
3589;SDS011;1809;48.470;9.226;2023-04-15T08:20:36;8.37;;;3.60;;
3589;SDS011;1809;48.470;9.226;2023-04-15T08:23:05;4.90;;;3.83;;
3589;SDS011;1809;48.470;9.226;2023-04-15T08:25:31;6.90;;;2.80;;
3589;SDS011;1809;48.470;9.226;2023-04-15T08:27:57;3.13;;;2.63;;
3589;SDS011;1809;48.470;9.226;2023-04-15T08:30:23;5.63;;;4.07;;
3589;SDS011;1809;48.470;9.226;2023-04-15T08:32:49;10.40;;;3.40;;
3589;SDS011;1809;48.470;9.226;2023-04-15T08:35:15;3.50;;;3.20;;
3589;SDS011;1809;48.470;9.226;2023-04-15T08:37:41;5.00;;;3.80;;
3589;SDS011;1809;48.470;9.226;2023-04-15T08:40:07;4.80;;;3.93;;
3589;SDS011;1809;48.470;9.226;2023-04-15T08:42:40;5.77;;;3.50;;
3589;SDS011;1809;48.470;9.226;2023-04-15T08:45:08;5.63;;;3.70;;
3589;SDS011;1809;48.470;9.226;2023-04-15T08:47:37;6.57;;;2.80;;
3589;SDS011;1809;48.470;9.226;2023-04-15T08:50:04;6.73;;;3.17;;
3589;SDS011;1809;48.470;9.226;2023-04-15T08:52:33;3.10;;;2.90;;
3589;SDS011;1809;48.470;9.226;2023-04-15T08:55:00;13.33;;;3.17;;
3589;SDS011;1809;48.470;9.226;2023-04-15T08:57:27;7.30;;;3.00;;
3589;SDS011;1809;48.470;9.226;2023-04-15T08:59:56;12.40;;;3.47;;
3589;SDS011;1809;48.470;9.226;2023-04-15T09:02:23;4.23;;;2.63;;
3589;SDS011;1809;48.470;9.226;2023-04-15T09:04:53;4.63;;;3.10;;
3589;SDS011;1809;48.470;9.226;2023-04-15T09:07:22;5.57;;;4.17;;
3589;SDS011;1809;48.470;9.226;2023-04-15T09:09:50;9.10;;;3.60;;
3589;SDS011;1809;48.470;9.226;2023-04-15T09:12:16;6.10;;;3.40;;
3589;SDS011;1809;48.470;9.226;2023-04-15T09:14:44;6.60;;;4.10;;
3589;SDS011;1809;48.470;9.226;2023-04-15T09:17:11;6.37;;;3.37;;
3589;SDS011;1809;48.470;9.226;2023-04-15T09:19:37;7.57;;;3.60;;
3589;SDS011;1809;48.470;9.226;2023-04-15T09:22:03;6.60;;;3.80;;
3589;SDS011;1809;48.470;9.226;2023-04-15T09:24:37;4.80;;;3.30;;
3589;SDS011;1809;48.470;9.226;2023-04-15T09:27:06;8.53;;;4.60;;
3589;SDS011;1809;48.470;9.226;2023-04-15T09:29:35;6.53;;;3.00;;
3589;SDS011;1809;48.470;9.226;2023-04-15T09:32:08;3.90;;;2.43;;
3589;SDS011;1809;48.470;9.226;2023-04-15T09:34:35;5.27;;;2.80;;
3589;SDS011;1809;48.470;9.226;2023-04-15T09:37:01;7.00;;;2.40;;
3589;SDS011;1809;48.470;9.226;2023-04-15T09:39:43;5.30;;;2.67;;
3589;SDS011;1809;48.470;9.226;2023-04-15T09:42:14;4.27;;;2.67;;
3589;SDS011;1809;48.470;9.226;2023-04-15T09:44:41;9.53;;;3.90;;
3589;SDS011;1809;48.470;9.226;2023-04-15T09:47:08;3.67;;;2.80;;
3589;SDS011;1809;48.470;9.226;2023-04-15T09:49:33;6.00;;;2.37;;
3589;SDS011;1809;48.470;9.226;2023-04-15T09:52:00;41.13;;;3.20;;
3589;SDS011;1809;48.470;9.226;2023-04-15T09:54:33;4.10;;;2.57;;
3589;SDS011;1809;48.470;9.226;2023-04-15T09:57:07;9.40;;;2.40;;
3589;SDS011;1809;48.470;9.226;2023-04-15T09:59:33;4.27;;;2.30;;
3589;SDS011;1809;48.470;9.226;2023-04-15T10:02:00;2.57;;;2.20;;
3589;SDS011;1809;48.470;9.226;2023-04-15T10:04:32;3.27;;;2.50;;
3589;SDS011;1809;48.470;9.226;2023-04-15T10:07:05;5.87;;;3.10;;
3589;SDS011;1809;48.470;9.226;2023-04-15T10:09:34;6.40;;;2.00;;
3589;SDS011;1809;48.470;9.226;2023-04-15T10:12:02;2.43;;;2.27;;
3589;SDS011;1809;48.470;9.226;2023-04-15T10:14:32;8.83;;;2.67;;
3589;SDS011;1809;48.470;9.226;2023-04-15T10:17:01;6.53;;;2.67;;
3589;SDS011;1809;48.470;9.226;2023-04-15T10:19:29;3.13;;;2.30;;
3589;SDS011;1809;48.470;9.226;2023-04-15T10:21:58;5.23;;;2.80;;
3589;SDS011;1809;48.470;9.226;2023-04-15T10:24:28;4.87;;;2.83;;
3589;SDS011;1809;48.470;9.226;2023-04-15T10:26:58;2.90;;;2.67;;
3589;SDS011;1809;48.470;9.226;2023-04-15T10:29:25;5.10;;;3.83;;
3589;SDS011;1809;48.470;9.226;2023-04-15T10:31:53;5.60;;;3.60;;
3589;SDS011;1809;48.470;9.226;2023-04-15T10:34:23;5.77;;;3.00;;
3589;SDS011;1809;48.470;9.226;2023-04-15T10:36:52;4.80;;;3.40;;
3589;SDS011;1809;48.470;9.226;2023-04-15T10:42:08;5.70;;;3.20;;
3589;SDS011;1809;48.470;9.226;2023-04-15T10:44:47;6.77;;;4.20;;
3589;SDS011;1809;48.470;9.226;2023-04-15T10:47:16;3.33;;;2.77;;
3589;SDS011;1809;48.470;9.226;2023-04-15T10:49:45;8.60;;;2.90;;
3589;SDS011;1809;48.470;9.226;2023-04-15T10:52:16;9.67;;;3.00;;
3589;SDS011;1809;48.470;9.226;2023-04-15T10:54:49;3.83;;;2.50;;
3589;SDS011;1809;48.470;9.226;2023-04-15T10:57:33;7.37;;;2.60;;
3589;SDS011;1809;48.470;9.226;2023-04-15T11:00:09;2.50;;;2.30;;
3589;SDS011;1809;48.470;9.226;2023-04-15T11:02:53;4.47;;;2.50;;
3589;SDS011;1809;48.470;9.226;2023-04-15T11:05:21;4.30;;;2.90;;
3589;SDS011;1809;48.470;9.226;2023-04-15T11:08:05;6.20;;;2.73;;
3589;SDS011;1809;48.470;9.226;2023-04-15T11:15:33;4.13;;;2.50;;
3589;SDS011;1809;48.470;9.226;2023-04-15T11:18:07;3.80;;;3.20;;
3589;SDS011;1809;48.470;9.226;2023-04-15T11:20:37;4.20;;;2.40;;
3589;SDS011;1809;48.470;9.226;2023-04-15T11:23:05;6.63;;;2.73;;
3589;SDS011;1809;48.470;9.226;2023-04-15T11:25:32;9.27;;;4.73;;
3589;SDS011;1809;48.470;9.226;2023-04-15T11:27:59;6.83;;;3.50;;
3589;SDS011;1809;48.470;9.226;2023-04-15T11:30:26;5.40;;;3.70;;
3589;SDS011;1809;48.470;9.226;2023-04-15T11:32:54;7.10;;;3.47;;
3589;SDS011;1809;48.470;9.226;2023-04-15T11:35:22;4.73;;;2.63;;
3589;SDS011;1809;48.470;9.226;2023-04-15T11:37:48;6.80;;;3.03;;
3589;SDS011;1809;48.470;9.226;2023-04-15T11:40:14;8.67;;;2.90;;
3589;SDS011;1809;48.470;9.226;2023-04-15T11:42:41;2.53;;;2.33;;
3589;SDS011;1809;48.470;9.226;2023-04-15T11:45:11;8.03;;;3.60;;
3589;SDS011;1809;48.470;9.226;2023-04-15T11:47:38;3.83;;;3.53;;
3589;SDS011;1809;48.470;9.226;2023-04-15T11:50:17;3.47;;;3.10;;
3589;SDS011;1809;48.470;9.226;2023-04-15T11:52:56;6.80;;;3.73;;
3589;SDS011;1809;48.470;9.226;2023-04-15T11:55:23;6.63;;;3.23;;
3589;SDS011;1809;48.470;9.226;2023-04-15T11:57:50;6.97;;;2.60;;
3589;SDS011;1809;48.470;9.226;2023-04-15T12:00:29;10.30;;;2.70;;
3589;SDS011;1809;48.470;9.226;2023-04-15T12:03:10;2.67;;;2.53;;
3589;SDS011;1809;48.470;9.226;2023-04-15T12:06:07;3.80;;;2.87;;
3589;SDS011;1809;48.470;9.226;2023-04-15T12:13:52;4.27;;;3.00;;
3589;SDS011;1809;48.470;9.226;2023-04-15T12:16:18;2.57;;;2.37;;
3589;SDS011;1809;48.470;9.226;2023-04-15T12:18:44;3.70;;;2.97;;
3589;SDS011;1809;48.470;9.226;2023-04-15T12:21:11;4.30;;;2.63;;
3589;SDS011;1809;48.470;9.226;2023-04-15T12:23:37;10.40;;;3.30;;
3589;SDS011;1809;48.470;9.226;2023-04-15T12:26:06;6.40;;;2.97;;
3589;SDS011;1809;48.470;9.226;2023-04-15T12:28:35;6.50;;;2.43;;
3589;SDS011;1809;48.470;9.226;2023-04-15T12:31:05;6.40;;;2.40;;
3589;SDS011;1809;48.470;9.226;2023-04-15T12:33:32;4.30;;;2.97;;
3589;SDS011;1809;48.470;9.226;2023-04-15T12:35:58;7.50;;;2.50;;
3589;SDS011;1809;48.470;9.226;2023-04-15T12:38:24;4.70;;;2.83;;
3589;SDS011;1809;48.470;9.226;2023-04-15T12:40:49;4.90;;;3.03;;
3589;SDS011;1809;48.470;9.226;2023-04-15T12:43:15;2.47;;;2.27;;
3589;SDS011;1809;48.470;9.226;2023-04-15T12:45:40;3.87;;;3.00;;
3589;SDS011;1809;48.470;9.226;2023-04-15T12:48:06;5.27;;;3.30;;
3589;SDS011;1809;48.470;9.226;2023-04-15T12:50:33;4.73;;;2.33;;
3589;SDS011;1809;48.470;9.226;2023-04-15T12:52:59;4.50;;;2.97;;
3589;SDS011;1809;48.470;9.226;2023-04-15T12:55:24;3.73;;;2.53;;
3589;SDS011;1809;48.470;9.226;2023-04-15T12:57:50;5.43;;;2.43;;
3589;SDS011;1809;48.470;9.226;2023-04-15T13:00:15;2.77;;;2.47;;
3589;SDS011;1809;48.470;9.226;2023-04-15T13:02:42;5.73;;;3.13;;
3589;SDS011;1809;48.470;9.226;2023-04-15T13:05:08;6.30;;;3.33;;
3589;SDS011;1809;48.470;9.226;2023-04-15T13:07:33;8.70;;;4.40;;
3589;SDS011;1809;48.470;9.226;2023-04-15T13:09:58;9.03;;;2.80;;
3589;SDS011;1809;48.470;9.226;2023-04-15T13:12:25;8.03;;;3.07;;
3589;SDS011;1809;48.470;9.226;2023-04-15T13:14:51;6.40;;;2.93;;
3589;SDS011;1809;48.470;9.226;2023-04-15T13:17:16;4.60;;;2.43;;
3589;SDS011;1809;48.470;9.226;2023-04-15T13:19:44;4.30;;;3.13;;
3589;SDS011;1809;48.470;9.226;2023-04-15T13:22:09;6.73;;;3.33;;
3589;SDS011;1809;48.470;9.226;2023-04-15T13:24:35;3.27;;;3.07;;
3589;SDS011;1809;48.470;9.226;2023-04-15T13:27:01;4.87;;;3.83;;
3589;SDS011;1809;48.470;9.226;2023-04-15T13:29:28;12.90;;;5.10;;
3589;SDS011;1809;48.470;9.226;2023-04-15T13:31:53;16.63;;;4.43;;
3589;SDS011;1809;48.470;9.226;2023-04-15T13:34:19;7.27;;;4.33;;
3589;SDS011;1809;48.470;9.226;2023-04-15T13:36:44;13.90;;;5.30;;
3589;SDS011;1809;48.470;9.226;2023-04-15T13:39:10;5.30;;;4.80;;
3589;SDS011;1809;48.470;9.226;2023-04-15T13:41:35;4.40;;;4.00;;
3589;SDS011;1809;48.470;9.226;2023-04-15T13:44:01;6.57;;;4.90;;
3589;SDS011;1809;48.470;9.226;2023-04-15T13:46:26;5.30;;;4.70;;
3589;SDS011;1809;48.470;9.226;2023-04-15T13:48:52;4.60;;;4.30;;
3589;SDS011;1809;48.470;9.226;2023-04-15T13:51:17;6.00;;;4.53;;
3589;SDS011;1809;48.470;9.226;2023-04-15T13:53:42;6.33;;;3.93;;
3589;SDS011;1809;48.470;9.226;2023-04-15T13:56:08;4.20;;;3.90;;
3589;SDS011;1809;48.470;9.226;2023-04-15T13:58:34;5.47;;;3.90;;
3589;SDS011;1809;48.470;9.226;2023-04-15T14:01:00;5.40;;;3.93;;
3589;SDS011;1809;48.470;9.226;2023-04-15T14:03:25;4.60;;;3.30;;
3589;SDS011;1809;48.470;9.226;2023-04-15T14:05:51;3.37;;;3.10;;
3589;SDS011;1809;48.470;9.226;2023-04-15T14:08:20;5.67;;;3.97;;
3589;SDS011;1809;48.470;9.226;2023-04-15T14:10:45;4.50;;;4.10;;
3589;SDS011;1809;48.470;9.226;2023-04-15T14:13:12;6.03;;;3.93;;
3589;SDS011;1809;48.470;9.226;2023-04-15T14:15:37;6.43;;;3.90;;
3589;SDS011;1809;48.470;9.226;2023-04-15T14:18:03;3.90;;;3.60;;
3589;SDS011;1809;48.470;9.226;2023-04-15T14:20:28;3.37;;;2.90;;
3589;SDS011;1809;48.470;9.226;2023-04-15T14:22:53;4.73;;;3.50;;
3589;SDS011;1809;48.470;9.226;2023-04-15T14:25:19;9.93;;;3.30;;
3589;SDS011;1809;48.470;9.226;2023-04-15T14:27:44;3.40;;;3.13;;
3589;SDS011;1809;48.470;9.226;2023-04-15T14:30:10;7.93;;;4.80;;
3589;SDS011;1809;48.470;9.226;2023-04-15T14:32:35;5.30;;;3.73;;
3589;SDS011;1809;48.470;9.226;2023-04-15T14:35:01;5.27;;;4.03;;
3589;SDS011;1809;48.470;9.226;2023-04-15T14:37:26;4.87;;;4.20;;
3589;SDS011;1809;48.470;9.226;2023-04-15T14:39:52;4.63;;;4.33;;
3589;SDS011;1809;48.470;9.226;2023-04-15T14:42:17;9.43;;;6.03;;
3589;SDS011;1809;48.470;9.226;2023-04-15T14:44:42;11.27;;;4.97;;
3589;SDS011;1809;48.470;9.226;2023-04-15T14:47:08;4.73;;;3.60;;
3589;SDS011;1809;48.470;9.226;2023-04-15T14:49:34;5.10;;;4.73;;
3589;SDS011;1809;48.470;9.226;2023-04-15T14:51:59;5.13;;;4.00;;
3589;SDS011;1809;48.470;9.226;2023-04-15T14:54:24;6.23;;;4.13;;
3589;SDS011;1809;48.470;9.226;2023-04-15T14:56:50;4.03;;;3.30;;
3589;SDS011;1809;48.470;9.226;2023-04-15T14:59:15;4.10;;;3.33;;
3589;SDS011;1809;48.470;9.226;2023-04-15T15:01:40;6.53;;;3.30;;
3589;SDS011;1809;48.470;9.226;2023-04-15T15:04:06;10.63;;;4.27;;
3589;SDS011;1809;48.470;9.226;2023-04-15T15:06:32;5.03;;;3.50;;
3589;SDS011;1809;48.470;9.226;2023-04-15T15:08:58;3.57;;;3.33;;
3589;SDS011;1809;48.470;9.226;2023-04-15T15:11:23;4.20;;;3.90;;
3589;SDS011;1809;48.470;9.226;2023-04-15T15:13:49;3.80;;;3.50;;
3589;SDS011;1809;48.470;9.226;2023-04-15T15:16:14;6.33;;;3.90;;
3589;SDS011;1809;48.470;9.226;2023-04-15T15:18:40;6.53;;;3.10;;
3589;SDS011;1809;48.470;9.226;2023-04-15T15:21:05;3.13;;;2.93;;
3589;SDS011;1809;48.470;9.226;2023-04-15T15:23:31;2.97;;;2.50;;
3589;SDS011;1809;48.470;9.226;2023-04-15T15:25:56;4.00;;;3.40;;
3589;SDS011;1809;48.470;9.226;2023-04-15T15:28:22;8.73;;;2.43;;
3589;SDS011;1809;48.470;9.226;2023-04-15T15:30:48;2.10;;;1.77;;